Terminal Aerodrome Forecast
Issued by NWS Albuquerque, NM

Home | Current Version | Previous Version | Text Only | Print | Product List | Glossary On
Versions: 1 2 3 4 5 6 7 8 9 10 11 12 13 14 15 16 17 18
462
FTUS45 KABQ 302109 AAA
TAFABQ
TAF AMD
KABQ 302109Z 3021/0118 36010KT P6SM VCSH SCT050 BKN080
     FM010100 17009KT P6SM VCSH BKN090
     FM010300 08011KT P6SM VCSH OVC060
     FM010500 09030G45KT P6SM OVC050
     FM010700 09042G57KT 4SM BLDU OVC040
     FM010900 09050G68KT 2SM BLDU OVC030
     FM011500 09038G50KT 5SM BLDU OVC025=

USA.gov is the U.S. government's official web portal to all federal, state and local government web resources and services.